createdAt,value
2022-09-09T00:03:15.555Z,81.00
2022-09-09T00:07:37.155Z,81.00
2022-09-09T00:11:31.602Z,81.50
2022-09-09T00:15:18.105Z,81.10
2022-09-09T00:19:59.185Z,80.90
2022-09-09T00:23:56.890Z,81.70
2022-09-09T00:27:46.652Z,81.10
2022-09-09T00:31:30.881Z,81.20
2022-09-09T00:35:38.513Z,81.20
2022-09-09T00:39:35.303Z,81.40
2022-09-09T00:43:22.971Z,81.30
2022-09-09T00:47:19.946Z,81.50
2022-09-09T00:51:11.765Z,81.80
2022-09-09T00:55:20.326Z,81.40
2022-09-09T00:59:28.681Z,81.80
2022-09-09T01:03:55.052Z,81.50
2022-09-09T01:07:37.363Z,81.80
2022-09-09T01:11:22.756Z,81.30
2022-09-09T01:15:19.027Z,81.30
2022-09-09T01:19:01.712Z,81.40
2022-09-09T01:23:02.058Z,81.30
2022-09-09T01:26:45.919Z,81.40
2022-09-09T01:30:28.986Z,81.40
2022-09-09T01:34:16.411Z,81.30
2022-09-09T01:37:58.274Z,81.40
2022-09-09T01:41:40.015Z,81.40
2022-09-09T01:45:22.936Z,81.40
2022-09-09T01:49:08.111Z,81.40
2022-09-09T01:52:55.765Z,81.50
2022-09-09T01:57:09.839Z,81.50
2022-09-09T02:01:14.527Z,81.70
2022-09-09T02:05:03.731Z,81.60
2022-09-09T02:08:50.563Z,81.30
2022-09-09T02:12:32.677Z,81.30
2022-09-09T02:16:40.889Z,81.30
2022-09-09T02:20:30.548Z,81.70
2022-09-09T02:24:16.980Z,81.30
2022-09-09T02:28:02.148Z,81.40
2022-09-09T02:31:46.679Z,81.40
2022-09-09T02:35:31.591Z,81.50
2022-09-09T02:39:14.158Z,81.60
2022-09-09T02:42:56.425Z,81.60
2022-09-09T02:46:48.855Z,81.70
2022-09-09T02:50:34.007Z,81.80
2022-09-09T02:54:27.600Z,81.60
2022-09-09T02:58:13.567Z,81.70
2022-09-09T03:01:55.307Z,81.70
2022-09-09T03:05:37.850Z,81.60
2022-09-09T03:09:19.595Z,81.70
2022-09-09T03:13:02.049Z,81.60
2022-09-09T03:16:44.121Z,81.70
2022-09-09T03:20:27.086Z,81.70
2022-09-09T03:24:08.797Z,81.70
2022-09-09T03:27:51.207Z,81.70
2022-09-09T03:31:33.489Z,81.70
2022-09-09T03:35:16.773Z,81.70
2022-09-09T03:38:59.049Z,81.70
2022-09-09T03:42:40.974Z,81.60
2022-09-09T03:46:24.811Z,81.70
2022-09-09T03:50:09.526Z,81.70
2022-09-09T03:53:51.336Z,81.70
2022-09-09T03:57:35.850Z,81.70
2022-09-09T04:01:18.901Z,81.70
2022-09-09T04:05:00.737Z,81.60
2022-09-09T04:08:42.749Z,81.60
2022-09-09T04:12:24.514Z,81.70
2022-09-09T04:16:07.334Z,81.60
2022-09-09T04:19:49.172Z,81.60
2022-09-09T04:23:31.122Z,81.60
2022-09-09T04:27:13.161Z,81.60
2022-09-09T04:30:54.914Z,81.60
2022-09-09T04:34:36.635Z,81.50
2022-09-09T04:38:19.130Z,81.60
2022-09-09T04:42:00.866Z,81.50
2022-09-09T04:45:43.658Z,81.50
2022-09-09T04:49:25.443Z,81.50
2022-09-09T04:53:08.080Z,81.40
2022-09-09T04:56:51.825Z,81.40
2022-09-09T05:00:36.505Z,81.40
2022-09-09T05:04:19.766Z,81.30
2022-09-09T05:08:09.474Z,81.20
2022-09-09T05:11:51.470Z,81.10
2022-09-09T05:15:33.342Z,81.10
2022-09-09T05:19:15.123Z,81.10
2022-09-09T05:22:57.668Z,81.10
2022-09-09T05:26:39.457Z,81.00
2022-09-09T05:30:23.700Z,80.90
2022-09-09T05:34:05.721Z,80.70
2022-09-09T05:37:47.536Z,80.70
2022-09-09T05:41:30.377Z,80.60
2022-09-09T05:45:12.481Z,80.50
2022-09-09T05:48:55.027Z,80.40
2022-09-09T05:52:37.059Z,80.30
2022-09-09T05:56:24.836Z,80.20
2022-09-09T06:00:07.206Z,80.10
2022-09-09T06:03:50.706Z,80.10
2022-09-09T06:07:32.391Z,80.10
2022-09-09T06:11:17.632Z,80.10
2022-09-09T06:14:59.331Z,80.10
2022-09-09T06:18:42.130Z,80.00
2022-09-09T06:22:24.064Z,80.00
2022-09-09T06:26:31.558Z,80.00
2022-09-09T06:30:13.614Z,80.00
2022-09-09T06:33:56.140Z,80.00
2022-09-09T06:37:37.894Z,80.00
2022-09-09T06:41:21.492Z,80.00
2022-09-09T06:45:03.518Z,80.00
2022-09-09T06:48:46.531Z,80.00
2022-09-09T06:52:28.548Z,80.00
2022-09-09T06:56:48.474Z,79.90
2022-09-09T07:00:31.092Z,79.80
2022-09-09T07:04:14.408Z,79.80
2022-09-09T07:07:56.123Z,79.70
2022-09-09T07:11:43.241Z,79.60
2022-09-09T07:15:25.897Z,79.60
2022-09-09T07:19:07.659Z,79.50
2022-09-09T07:22:49.376Z,79.40
2022-09-09T07:26:31.976Z,79.40
2022-09-09T07:30:20.944Z,79.40
2022-09-09T07:34:05.577Z,79.30
2022-09-09T07:37:50.857Z,79.20
2022-09-09T07:41:36.912Z,78.90
2022-09-09T07:45:18.699Z,78.90
2022-09-09T07:49:01.988Z,78.90
2022-09-09T07:52:43.744Z,78.80
2022-09-09T07:56:27.122Z,78.50
2022-09-09T08:00:09.542Z,78.20
2022-09-09T08:04:06.637Z,78.10
2022-09-09T08:07:49.173Z,77.60
2022-09-09T08:11:35.352Z,77.50
2022-09-09T08:15:19.901Z,77.00
2022-09-09T08:19:02.140Z,76.20
2022-09-09T08:22:44.628Z,76.70
2022-09-09T08:26:34.455Z,76.40
2022-09-09T08:30:16.343Z,75.90
2022-09-09T08:34:00.421Z,75.80
2022-09-09T08:37:42.203Z,75.50
2022-09-09T08:41:36.071Z,75.60
2022-09-09T08:45:36.573Z,74.60
2022-09-09T08:49:27.699Z,74.20
2022-09-09T08:53:09.572Z,74.60
2022-09-09T08:56:51.950Z,73.90
2022-09-09T09:00:52.737Z,72.30
2022-09-09T09:05:10.706Z,73.10
2022-09-09T09:09:14.653Z,72.00
2022-09-09T09:12:57.326Z,72.10
2022-09-09T09:16:52.939Z,72.70
2022-09-09T09:21:07.404Z,71.30
2022-09-09T09:25:11.646Z,71.70
2022-09-09T09:28:57.653Z,71.90
2022-09-09T09:32:45.062Z,72.10
2022-09-09T09:36:42.367Z,72.40
2022-09-09T09:40:25.176Z,72.00
2022-09-09T09:44:23.244Z,72.40
2022-09-09T09:48:13.814Z,72.80
2022-09-09T09:52:02.926Z,72.70
2022-09-09T09:55:54.076Z,72.70
2022-09-09T09:59:40.736Z,73.00
2022-09-09T10:03:29.912Z,73.30
2022-09-09T10:07:21.059Z,73.40
2022-09-09T10:11:41.562Z,73.30
2022-09-09T10:15:31.881Z,73.00
2022-09-09T10:19:21.873Z,73.40
2022-09-09T10:23:29.631Z,73.20
2022-09-09T10:27:59.003Z,72.60
2022-09-09T10:31:52.760Z,72.10
2022-09-09T10:35:41.191Z,71.90
2022-09-09T10:39:43.036Z,72.50
2022-09-09T10:43:46.653Z,71.00
2022-09-09T10:47:59.331Z,71.30
2022-09-09T10:52:00.026Z,70.40
2022-09-09T10:55:51.571Z,71.10
2022-09-09T10:59:41.159Z,71.80
2022-09-09T11:03:34.420Z,71.40
2022-09-09T11:07:26.067Z,71.20
2022-09-09T11:11:12.930Z,71.50
2022-09-09T11:15:07.162Z,71.70
2022-09-09T11:18:49.098Z,71.10
2022-09-09T11:22:44.419Z,71.40
2022-09-09T11:26:39.127Z,71.30
2022-09-09T11:30:56.104Z,71.40
2022-09-09T11:35:00.307Z,71.60
2022-09-09T11:39:02.035Z,71.60
2022-09-09T11:42:44.126Z,72.00
2022-09-09T11:46:37.384Z,72.10
2022-09-09T11:50:19.626Z,70.90
2022-09-09T11:54:03.951Z,71.50
2022-09-09T11:57:49.487Z,71.80
2022-09-09T12:01:34.139Z,71.90
2022-09-09T12:05:17.333Z,72.20
2022-09-09T12:09:11.971Z,72.10
2022-09-09T12:12:53.769Z,71.00
2022-09-09T12:16:39.562Z,71.20
2022-09-09T12:20:21.501Z,70.70
2022-09-09T12:24:11.968Z,69.70
2022-09-09T12:28:03.095Z,68.60
2022-09-09T12:32:23.126Z,69.00
2022-09-09T12:36:09.136Z,68.60
2022-09-09T12:40:00.824Z,68.50
2022-09-09T12:43:42.642Z,67.10
2022-09-09T12:47:36.358Z,67.10
2022-09-09T12:51:31.335Z,65.90
2022-09-09T12:55:26.105Z,65.70
2022-09-09T12:59:27.739Z,66.40
2022-09-09T13:03:19.105Z,68.80
2022-09-09T13:07:12.467Z,70.60
2022-09-09T13:11:02.789Z,71.50
2022-09-09T13:14:49.397Z,71.70
2022-09-09T13:18:34.937Z,72.90
2022-09-09T13:22:25.899Z,73.10
2022-09-09T13:26:27.964Z,73.80
2022-09-09T13:30:31.708Z,74.60
2022-09-09T13:34:28.146Z,74.40
2022-09-09T13:38:13.002Z,74.30
2022-09-09T13:41:55.706Z,74.80
2022-09-09T13:45:37.601Z,74.60
2022-09-09T13:49:23.933Z,74.70
2022-09-09T13:53:05.949Z,74.60
2022-09-09T13:56:48.130Z,74.50
2022-09-09T14:00:35.449Z,74.80
2022-09-09T14:04:17.610Z,75.00
2022-09-09T14:08:00.738Z,75.00
2022-09-09T14:11:43.815Z,74.70
2022-09-09T14:15:25.534Z,75.30
2022-09-09T14:19:08.698Z,75.20
2022-09-09T14:22:50.638Z,74.50
2022-09-09T14:26:32.539Z,73.60
2022-09-09T14:30:14.318Z,73.90
2022-09-09T14:33:56.154Z,73.40
2022-09-09T14:37:38.037Z,72.70
2022-09-09T14:41:21.090Z,72.10
2022-09-09T14:45:03.110Z,71.80
2022-09-09T14:48:46.261Z,71.10
2022-09-09T14:52:28.072Z,69.60
2022-09-09T14:56:12.573Z,69.50
2022-09-09T14:59:54.451Z,69.80
2022-09-09T15:03:36.488Z,69.70
2022-09-09T15:07:20.280Z,69.60
2022-09-09T15:11:03.523Z,69.60
2022-09-09T15:14:45.719Z,69.20
2022-09-09T15:18:27.851Z,68.90
2022-09-09T15:22:10.222Z,68.50
2022-09-09T15:25:57.434Z,66.40
2022-09-09T15:29:39.787Z,68.20
2022-09-09T15:33:23.051Z,68.30
2022-09-09T15:37:04.886Z,68.70
2022-09-09T15:40:55.492Z,69.10
2022-09-09T15:44:43.627Z,69.30
2022-09-09T15:48:33.361Z,69.90
2022-09-09T15:52:15.156Z,70.70
2022-09-09T15:55:57.053Z,70.60
2022-09-09T15:59:38.799Z,70.40
2022-09-09T16:03:20.486Z,70.80
2022-09-09T16:07:06.455Z,70.50
2022-09-09T16:10:48.281Z,69.10
2022-09-09T16:14:34.959Z,66.70
2022-09-09T16:18:17.077Z,66.30
2022-09-09T16:21:58.923Z,65.00
2022-09-09T16:25:40.704Z,64.40
2022-09-09T16:29:23.332Z,63.00
2022-09-09T16:33:05.031Z,63.30
2022-09-09T16:36:49.305Z,63.10
2022-09-09T16:40:31.395Z,62.80
2022-09-09T16:44:15.029Z,63.90
2022-09-09T16:47:57.103Z,64.60
2022-09-09T16:51:41.222Z,64.70
2022-09-09T16:55:22.982Z,64.40
2022-09-09T16:59:07.063Z,63.40
2022-09-09T17:02:48.831Z,62.40
2022-09-09T17:06:34.118Z,62.30
2022-09-09T17:10:16.030Z,62.80
2022-09-09T17:13:59.211Z,63.10
2022-09-09T17:17:40.966Z,63.70
2022-09-09T17:21:26.473Z,64.20
2022-09-09T17:25:08.976Z,64.40
2022-09-09T17:28:50.733Z,64.80
2022-09-09T17:32:32.695Z,65.10
2022-09-09T17:36:19.912Z,65.30
2022-09-09T17:40:02.065Z,65.50
2022-09-09T17:43:44.536Z,65.90
2022-09-09T17:47:26.737Z,66.10
2022-09-09T17:51:10.342Z,66.40
2022-09-09T17:54:52.081Z,66.70
2022-09-09T17:58:34.062Z,67.10
2022-09-09T18:02:15.924Z,67.60
2022-09-09T18:06:02.367Z,67.80
2022-09-09T18:09:44.609Z,68.30
2022-09-09T18:13:26.373Z,68.30
2022-09-09T18:17:09.135Z,68.50
2022-09-09T18:21:06.437Z,68.70
2022-09-09T18:24:48.456Z,69.50
2022-09-09T18:28:30.184Z,69.20
2022-09-09T18:32:12.434Z,69.50
2022-09-09T18:35:56.711Z,69.60
2022-09-09T18:39:38.462Z,69.80
2022-09-09T18:43:20.270Z,70.10
2022-09-09T18:47:03.330Z,70.30
2022-09-09T18:50:46.215Z,70.50
2022-09-09T18:54:34.042Z,70.70
2022-09-09T18:58:15.786Z,71.00
2022-09-09T19:01:58.295Z,70.90
2022-09-09T19:05:40.596Z,71.10
2022-09-09T19:09:22.286Z,71.50
2022-09-09T19:13:04.752Z,71.80
2022-09-09T19:16:48.554Z,72.60
2022-09-09T19:20:30.574Z,72.50
2022-09-09T19:24:12.247Z,72.30
2022-09-09T19:27:54.001Z,72.70
2022-09-09T19:31:36.755Z,72.90
2022-09-09T19:35:19.866Z,73.00
2022-09-09T19:39:03.346Z,73.10
2022-09-09T19:42:45.062Z,73.80
2022-09-09T19:46:31.293Z,73.60
2022-09-09T19:50:13.079Z,73.80
2022-09-09T19:53:57.500Z,73.90
2022-09-09T19:57:39.881Z,74.00
2022-09-09T20:01:24.486Z,74.00
2022-09-09T20:05:06.999Z,74.30
2022-09-09T20:08:48.863Z,74.40
2022-09-09T20:12:30.574Z,74.50
2022-09-09T20:16:15.735Z,74.50
2022-09-09T20:19:57.539Z,74.60
2022-09-09T20:23:39.393Z,74.60
2022-09-09T20:27:21.873Z,74.60
2022-09-09T20:31:15.574Z,74.60
2022-09-09T20:34:58.037Z,75.40
2022-09-09T20:38:47.329Z,74.80
2022-09-09T20:42:29.310Z,75.50
2022-09-09T20:46:11.095Z,75.10
2022-09-09T20:49:52.989Z,75.10
2022-09-09T20:53:34.901Z,75.10
2022-09-09T20:57:21.937Z,75.20
2022-09-09T21:01:05.848Z,75.20
2022-09-09T21:04:47.558Z,75.30
2022-09-09T21:08:30.352Z,75.40
2022-09-09T21:12:12.181Z,75.70
2022-09-09T21:15:54.145Z,75.80
2022-09-09T21:19:35.850Z,76.00
2022-09-09T21:23:18.335Z,76.10
2022-09-09T21:27:00.721Z,76.20
2022-09-09T21:30:46.513Z,76.30
2022-09-09T21:34:28.699Z,76.30
2022-09-09T21:38:31.102Z,76.50
2022-09-09T21:42:13.982Z,77.50
2022-09-09T21:45:56.635Z,76.50
2022-09-09T21:49:38.501Z,76.70
2022-09-09T21:53:20.470Z,76.80
2022-09-09T21:57:02.671Z,76.80
2022-09-09T22:00:46.666Z,76.80
2022-09-09T22:04:28.763Z,76.80
2022-09-09T22:08:12.109Z,76.80
2022-09-09T22:11:53.891Z,76.70
2022-09-09T22:15:36.402Z,76.60
2022-09-09T22:19:18.250Z,76.60
2022-09-09T22:23:01.421Z,76.60
2022-09-09T22:26:43.280Z,76.60
2022-09-09T22:30:25.196Z,76.70
2022-09-09T22:34:07.371Z,76.70
2022-09-09T22:37:49.095Z,76.70
2022-09-09T22:41:32.142Z,76.70
2022-09-09T22:45:13.909Z,76.80
2022-09-09T22:48:55.622Z,76.80
2022-09-09T22:52:37.358Z,76.90
2022-09-09T22:56:20.057Z,76.80
2022-09-09T23:00:02.155Z,76.80
2022-09-09T23:03:46.624Z,76.80
2022-09-09T23:07:28.392Z,76.90
2022-09-09T23:11:12.117Z,76.90
2022-09-09T23:14:56.798Z,76.80
2022-09-09T23:18:40.379Z,76.90
2022-09-09T23:22:22.993Z,76.90
2022-09-09T23:26:07.044Z,76.90
2022-09-09T23:29:49.642Z,76.90
2022-09-09T23:33:31.794Z,76.90
2022-09-09T23:37:13.789Z,76.80
2022-09-09T23:40:56.387Z,76.90
2022-09-09T23:44:39.521Z,76.90
2022-09-09T23:48:21.274Z,77.00
2022-09-09T23:52:05.383Z,77.00
2022-09-09T23:55:47.173Z,76.90
2022-09-09T23:59:29.890Z,77.00
